Time;durP1;ratioP1;P1;durP2;ratioP2;P2;SDS_P1;SDS_P2;PMS_P1;PMS_P2;Temp;Humidity;BMP_temperature;BMP_pressure;BME280_temperature;BME280_humidity;BME280_pressure;Samples;Min_cycle;Max_cycle;Signal;HPM_P1;HPM_P2
2021/07/08 00:00:46;;;;;;;21.38;19.23;;;22.40;96.00;;;;;;4905760;29;20262;-86
2021/07/08 00:03:23;;;;;;;20.73;18.80;;;22.30;96.00;;;;;;4900968;29;20215;-85
2021/07/08 00:05:53;;;;;;;20.25;18.33;;;22.30;96.10;;;;;;4901927;29;20212;-86
2021/07/08 00:08:22;;;;;;;21.35;19.25;;;22.30;96.30;;;;;;4903345;29;20266;-86
2021/07/08 00:10:55;;;;;;;20.80;18.80;;;22.30;96.10;;;;;;4913109;29;20198;-85
2021/07/08 00:13:29;;;;;;;20.63;18.58;;;22.30;96.70;;;;;;4924442;29;20193;-85
2021/07/08 00:15:58;;;;;;;21.38;19.27;;;22.30;97.30;;;;;;4906080;29;20621;-86
2021/07/08 00:18:29;;;;;;;20.98;18.88;;;22.30;97.30;;;;;;4916960;29;20238;-87
2021/07/08 00:20:59;;;;;;;21.25;19.25;;;22.40;97.50;;;;;;4913633;29;20203;-85
2021/07/08 00:23:27;;;;;;;20.92;18.80;;;22.40;97.60;;;;;;4902886;29;20250;-87
2021/07/08 00:25:57;;;;;;;21.40;19.25;;;22.30;97.60;;;;;;4898656;29;20673;-85
2021/07/08 00:28:27;;;;;;;20.15;18.33;;;22.40;97.80;;;;;;4899926;29;20440;-84
2021/07/08 00:30:56;;;;;;;21.30;19.20;;;22.40;97.90;;;;;;4903656;29;20195;-86
2021/07/08 00:33:25;;;;;;;20.70;18.73;;;22.40;97.60;;;;;;4908021;29;20296;-84
2021/07/08 00:35:54;;;;;;;20.95;18.85;;;22.40;97.40;;;;;;4926783;28;20191;-86
2021/07/08 00:38:23;;;;;;;21.80;19.55;;;22.40;97.50;;;;;;4916240;28;20214;-84
2021/07/08 00:40:51;;;;;;;21.95;19.85;;;22.40;97.50;;;;;;4904953;29;20207;-85
2021/07/08 00:43:20;;;;;;;21.40;19.30;;;22.40;97.70;;;;;;4915494;29;20198;-85
2021/07/08 00:45:50;;;;;;;21.35;19.30;;;22.50;97.30;;;;;;4915230;29;20485;-84
2021/07/08 00:48:19;;;;;;;20.70;18.60;;;22.60;96.20;;;;;;4904637;29;20619;-83
2021/07/08 00:50:48;;;;;;;20.95;19.00;;;22.70;95.40;;;;;;4903232;29;20767;-85
2021/07/08 00:53:19;;;;;;;20.92;18.98;;;22.80;95.00;;;;;;4902284;29;20205;-88
2021/07/08 00:55:56;;;;;;;21.38;19.35;;;22.90;94.20;;;;;;4901026;29;20230;-87
2021/07/08 00:58:25;;;;;;;20.73;18.73;;;23.00;93.90;;;;;;4895032;29;20255;-87
2021/07/08 01:00:56;;;;;;;20.85;19.05;;;23.00;93.80;;;;;;4897630;29;20479;-86
2021/07/08 01:03:25;;;;;;;21.38;19.38;;;23.10;93.70;;;;;;4903579;29;20221;-86
2021/07/08 01:05:56;;;;;;;20.65;18.85;;;23.00;93.70;;;;;;4896851;29;20370;-88
2021/07/08 01:08:26;;;;;;;21.30;19.30;;;23.00;93.70;;;;;;4901207;29;20206;-86
2021/07/08 01:10:56;;;;;;;20.98;18.83;;;23.00;93.90;;;;;;4896451;29;20198;-87
2021/07/08 01:13:25;;;;;;;19.13;17.40;;;23.00;95.10;;;;;;4901208;29;20203;-86
2021/07/08 01:15:55;;;;;;;19.60;17.70;;;23.00;98.50;;;;;;4899063;29;20222;-86
2021/07/08 01:18:24;;;;;;;21.02;18.95;;;23.00;97.40;;;;;;4898314;29;20211;-83
2021/07/08 01:20:53;;;;;;;20.45;18.52;;;22.90;99.90;;;;;;4899954;29;20251;-87
2021/07/08 01:23:23;;;;;;;20.35;18.45;;;22.90;99.90;;;;;;4898180;29;20199;-87
2021/07/08 01:25:51;;;;;;;20.98;18.75;;;22.90;99.90;;;;;;4899395;29;20203;-87
2021/07/08 01:28:20;;;;;;;20.90;18.65;;;22.80;99.90;;;;;;4889159;29;20210;-85
2021/07/08 01:30:49;;;;;;;21.33;19.23;;;22.60;99.90;;;;;;4906974;29;20203;-85
2021/07/08 01:33:17;;;;;;;21.38;19.48;;;22.50;99.90;;;;;;4906607;29;20195;-87
2021/07/08 01:35:46;;;;;;;21.27;19.10;;;22.40;99.90;;;;;;4907308;28;20210;-85
2021/07/08 01:38:15;;;;;;;21.92;19.88;;;22.30;99.90;;;;;;4995010;23;20257;-86
2021/07/08 01:40:46;;;;;;;21.02;18.88;;;22.30;99.90;;;;;;4964643;28;20221;-87
2021/07/08 01:43:16;;;;;;;22.45;20.38;;;22.30;99.90;;;;;;4958191;28;20205;-86
2021/07/08 01:45:45;;;;;;;20.52;18.42;;;22.30;99.90;;;;;;4944620;28;20278;-86
2021/07/08 01:48:13;;;;;;;20.50;18.50;;;22.30;99.90;;;;;;4944893;28;20206;-85
2021/07/08 01:50:43;;;;;;;22.33;20.33;;;22.30;99.90;;;;;;4965166;28;20240;-86
2021/07/08 01:53:12;;;;;;;22.60;20.38;;;22.30;99.90;;;;;;4933006;29;20904;-86
2021/07/08 01:55:40;;;;;;;20.85;18.95;;;22.20;99.90;;;;;;4941918;28;20664;-86
2021/07/08 01:58:11;;;;;;;20.95;18.80;;;22.20;99.90;;;;;;4943039;29;20206;-85
2021/07/08 02:00:39;;;;;;;20.85;18.75;;;22.20;99.90;;;;;;4956981;28;20489;-85
2021/07/08 02:03:07;;;;;;;20.40;18.52;;;22.10;99.90;;;;;;4958056;28;20991;-86
2021/07/08 02:05:36;;;;;;;19.53;17.73;;;22.10;99.90;;;;;;4966718;28;20200;-84
2021/07/08 02:08:05;;;;;;;20.07;18.17;;;22.10;99.90;;;;;;4961510;28;20193;-85
2021/07/08 02:10:34;;;;;;;19.57;17.50;;;22.00;99.90;;;;;;4968053;28;20224;-87
2021/07/08 02:13:04;;;;;;;18.33;16.70;;;22.00;99.90;;;;;;4959704;28;20216;-85
2021/07/08 02:15:35;;;;;;;19.20;17.30;;;22.00;99.90;;;;;;4938430;29;20446;-85
2021/07/08 02:18:04;;;;;;;18.77;16.97;;;21.90;99.90;;;;;;4959294;28;20193;-86
2021/07/08 02:20:34;;;;;;;18.45;16.73;;;21.90;99.90;;;;;;4966366;28;20245;-85
2021/07/08 02:23:02;;;;;;;17.07;15.57;;;21.90;99.90;;;;;;4964623;28;20209;-86
2021/07/08 02:25:31;;;;;;;19.30;16.60;;;21.80;99.90;;;;;;4958887;28;20280;-86
2021/07/08 02:28:00;;;;;;;18.40;15.60;;;21.80;99.90;;;;;;4936481;28;20521;-85
2021/07/08 02:30:29;;;;;;;17.30;15.53;;;21.70;99.90;;;;;;4943930;29;20201;-86
2021/07/08 02:32:59;;;;;;;17.47;15.77;;;21.70;99.90;;;;;;4938596;28;20224;-88
2021/07/08 02:35:29;;;;;;;19.30;17.47;;;21.60;99.90;;;;;;4943389;28;20189;-84
2021/07/08 02:37:58;;;;;;;17.20;15.40;;;21.60;99.90;;;;;;4943631;28;20213;-85
2021/07/08 02:40:29;;;;;;;19.30;17.17;;;21.60;99.90;;;;;;4941027;28;20243;-85
2021/07/08 02:42:58;;;;;;;18.90;17.00;;;21.50;99.90;;;;;;4943451;28;20209;-86
2021/07/08 02:45:29;;;;;;;19.30;17.13;;;21.50;99.90;;;;;;4938645;29;20643;-86
2021/07/08 02:48:03;;;;;;;18.70;16.90;;;21.50;99.90;;;;;;4938388;28;20622;-85
2021/07/08 02:50:32;;;;;;;18.23;16.37;;;21.40;99.90;;;;;;4940114;29;20204;-84
2021/07/08 02:53:01;;;;;;;19.17;17.27;;;21.40;99.90;;;;;;4940344;28;20197;-85
2021/07/08 02:55:30;;;;;;;18.90;17.07;;;21.40;99.90;;;;;;4949279;28;20209;-87
2021/07/08 02:58:00;;;;;;;19.00;17.10;;;21.40;99.90;;;;;;4958021;28;20380;-86
2021/07/08 03:00:30;;;;;;;20.55;17.33;;;21.40;99.90;;;;;;4971268;28;20213;-86
2021/07/08 03:03:01;;;;;;;22.90;20.50;;;21.40;99.90;;;;;;4963043;28;20495;-85
2021/07/08 03:05:30;;;;;;;22.87;20.33;;;21.40;99.90;;;;;;4955225;28;20482;-85
2021/07/08 03:07:59;;;;;;;23.50;21.00;;;21.40;99.90;;;;;;4959330;28;20225;-85
2021/07/08 03:10:30;;;;;;;25.10;21.33;;;21.40;99.90;;;;;;4951650;28;20205;-85
2021/07/08 03:12:59;;;;;;;24.37;21.07;;;21.40;99.90;;;;;;4946490;28;20272;-85
2021/07/08 03:15:29;;;;;;;27.50;22.13;;;21.40;99.90;;;;;;4967197;28;20201;-85
2021/07/08 03:17:58;;;;;;;27.70;22.80;;;21.40;99.90;;;;;;4960293;28;20194;-86
2021/07/08 03:20:30;;;;;;;28.33;23.03;;;21.40;99.90;;;;;;4952154;28;20241;-85
2021/07/08 03:22:59;;;;;;;26.83;22.60;;;21.50;99.90;;;;;;4940675;28;20214;-86
2021/07/08 03:25:29;;;;;;;27.30;22.43;;;21.40;99.90;;;;;;4943995;28;20205;-86
2021/07/08 03:27:59;;;;;;;26.47;22.70;;;21.50;99.90;;;;;;4940890;28;20333;-85
2021/07/08 03:30:30;;;;;;;28.40;24.53;;;21.50;99.90;;;;;;4938544;28;20206;-87
2021/07/08 03:33:02;;;;;;;28.92;24.00;;;21.50;99.90;;;;;;4938281;28;20205;-85
2021/07/08 03:35:34;;;;;;;31.83;26.73;;;21.50;99.90;;;;;;4948432;28;20244;-84
2021/07/08 03:38:04;;;;;;;33.13;27.80;;;21.50;99.90;;;;;;4946577;28;20466;-85
2021/07/08 03:40:33;;;;;;;34.67;26.93;;;21.50;99.90;;;;;;4952538;29;20333;-87
2021/07/08 03:43:02;;;;;;;34.22;26.45;;;21.50;99.90;;;;;;4945762;28;20251;-85
2021/07/08 03:45:31;;;;;;;33.90;28.23;;;21.50;99.90;;;;;;4950430;28;20527;-85
2021/07/08 03:48:00;;;;;;;39.50;28.03;;;21.50;99.90;;;;;;4930663;29;20237;-86
2021/07/08 03:50:29;;;;;;;36.27;27.97;;;21.50;99.90;;;;;;4942254;28;20245;-86
2021/07/08 03:52:59;;;;;;;34.08;27.63;;;21.50;99.90;;;;;;4947353;28;20214;-86
2021/07/08 03:55:28;;;;;;;35.47;26.67;;;21.60;99.90;;;;;;4943078;28;20212;-86
2021/07/08 03:57:56;;;;;;;33.53;26.60;;;21.70;99.90;;;;;;4922614;29;20221;-85
2021/07/08 04:00:28;;;;;;;35.05;26.63;;;21.70;99.90;;;;;;4954807;28;20707;-86
2021/07/08 04:03:03;;;;;;;35.63;26.02;;;21.90;99.90;;;;;;4937895;29;20217;-86
2021/07/08 04:05:32;;;;;;;34.83;26.52;;;22.00;99.90;;;;;;4957752;28;20185;-86
2021/07/08 04:08:02;;;;;;;32.17;25.92;;;22.20;99.90;;;;;;4961802;28;20213;-85
2021/07/08 04:10:31;;;;;;;32.92;26.52;;;22.20;99.90;;;;;;4960635;28;20202;-85
2021/07/08 04:13:02;;;;;;;40.33;27.80;;;22.30;99.90;;;;;;4935706;28;20224;-87
2021/07/08 04:15:32;;;;;;;36.55;28.35;;;22.40;99.90;;;;;;4933874;28;20499;-86
2021/07/08 04:18:01;;;;;;;38.30;27.83;;;22.40;99.90;;;;;;4941332;28;20280;-86
2021/07/08 04:20:32;;;;;;;36.88;26.85;;;22.50;99.90;;;;;;4917927;28;20268;-86
2021/07/08 04:23:02;;;;;;;36.08;26.52;;;22.60;99.90;;;;;;4935458;28;20285;-87
2021/07/08 04:25:31;;;;;;;36.03;26.50;;;22.70;99.90;;;;;;4939562;28;20205;-87
2021/07/08 04:28:00;;;;;;;34.60;26.00;;;22.90;99.90;;;;;;4938363;28;20210;-87
2021/07/08 04:30:29;;;;;;;33.70;24.92;;;23.00;99.90;;;;;;4943620;28;20583;-85
2021/07/08 04:32:58;;;;;;;39.28;26.80;;;23.20;99.90;;;;;;4940291;28;20625;-87
2021/07/08 04:35:30;;;;;;;36.70;26.50;;;23.40;99.90;;;;;;4932234;28;20212;-85
2021/07/08 04:37:59;;;;;;;34.50;24.80;;;23.50;99.90;;;;;;4950637;28;20484;-85
2021/07/08 04:40:29;;;;;;;32.47;24.88;;;23.70;99.50;;;;;;4950406;28;20562;-85
2021/07/08 04:42:58;;;;;;;34.40;26.27;;;23.70;98.70;;;;;;4964707;28;20244;-86
2021/07/08 04:45:28;;;;;;;34.17;25.73;;;23.70;98.40;;;;;;4960378;28;20197;-87
2021/07/08 04:47:58;;;;;;;34.05;25.17;;;23.80;97.70;;;;;;4930000;28;20197;-87
2021/07/08 04:50:27;;;;;;;37.00;25.17;;;23.80;97.20;;;;;;4961994;28;20213;-85
2021/07/08 04:52:59;;;;;;;35.00;25.25;;;23.80;97.60;;;;;;4959205;28;20202;-85
2021/07/08 04:55:33;;;;;;;37.22;24.60;;;23.90;97.10;;;;;;4961914;28;20182;-85
2021/07/08 04:58:02;;;;;;;30.98;24.38;;;24.00;97.20;;;;;;4947250;28;20210;-87
2021/07/08 05:00:31;;;;;;;26.23;22.63;;;24.00;96.60;;;;;;4928331;28;20565;-86
2021/07/08 05:03:00;;;;;;;28.85;22.92;;;24.00;96.10;;;;;;4936490;29;20510;-85
2021/07/08 05:05:31;;;;;;;26.48;22.83;;;23.80;96.30;;;;;;4934576;28;20240;-87
2021/07/08 05:08:00;;;;;;;29.55;22.92;;;23.70;97.30;;;;;;4940010;28;20213;-86
2021/07/08 05:10:29;;;;;;;28.13;22.08;;;23.60;98.10;;;;;;4928083;28;20284;-84
2021/07/08 05:13:00;;;;;;;28.38;23.35;;;23.60;98.80;;;;;;4937596;28;20213;-85
2021/07/08 05:15:30;;;;;;;27.75;23.23;;;23.60;98.10;;;;;;4935375;29;20209;-87
2021/07/08 05:17:59;;;;;;;28.45;23.10;;;23.50;98.30;;;;;;4931433;28;20607;-84
2021/07/08 05:20:29;;;;;;;29.52;22.73;;;23.50;98.50;;;;;;4936748;28;20643;-86
2021/07/08 05:23:02;;;;;;;30.67;24.52;;;23.60;98.60;;;;;;4930821;28;20205;-85
2021/07/08 05:25:30;;;;;;;30.85;24.27;;;23.70;99.10;;;;;;4933178;28;20221;-86
2021/07/08 05:28:01;;;;;;;32.75;24.55;;;23.80;98.60;;;;;;4931168;29;20311;-86
2021/07/08 05:30:30;;;;;;;32.00;23.67;;;23.90;97.10;;;;;;4927700;29;20630;-85
2021/07/08 05:32:59;;;;;;;24.95;21.98;;;24.10;96.40;;;;;;4941809;29;20210;-85
2021/07/08 05:35:28;;;;;;;30.35;22.75;;;24.10;95.60;;;;;;4928124;29;20209;-84
2021/07/08 05:37:57;;;;;;;26.42;22.40;;;24.20;95.70;;;;;;4908328;29;20217;-85
2021/07/08 05:40:26;;;;;;;27.55;21.92;;;24.20;95.90;;;;;;4930412;29;20213;-87
2021/07/08 05:42:55;;;;;;;27.73;21.80;;;24.30;95.90;;;;;;4948308;28;20241;-86
2021/07/08 05:45:25;;;;;;;26.67;21.17;;;24.40;95.30;;;;;;4933954;28;20210;-85
2021/07/08 05:47:54;;;;;;;29.30;22.70;;;24.60;95.40;;;;;;4943730;28;20546;-86
2021/07/08 05:50:24;;;;;;;26.75;21.73;;;24.70;94.90;;;;;;4949533;28;20186;-85
2021/07/08 05:52:52;;;;;;;28.77;22.90;;;24.50;95.10;;;;;;4962099;28;20205;-85
2021/07/08 05:55:22;;;;;;;28.17;22.45;;;24.50;95.30;;;;;;4952618;28;20208;-86
2021/07/08 05:57:54;;;;;;;31.92;22.45;;;24.40;95.30;;;;;;4937961;28;20294;-84
2021/07/08 06:00:25;;;;;;;30.70;22.17;;;24.30;96.20;;;;;;4921473;28;20201;-86
2021/07/08 06:02:54;;;;;;;26.40;21.63;;;24.50;95.90;;;;;;4933156;28;20261;-85
2021/07/08 06:05:26;;;;;;;26.08;22.88;;;24.60;95.30;;;;;;4939393;28;20206;-84
2021/07/08 06:07:55;;;;;;;27.15;23.45;;;24.60;94.50;;;;;;4929218;28;20342;-87
2021/07/08 06:10:23;;;;;;;28.42;23.88;;;24.50;94.80;;;;;;4930377;28;20214;-87
2021/07/08 06:12:55;;;;;;;30.05;23.77;;;24.40;95.10;;;;;;4930178;28;20209;-85
2021/07/08 06:15:26;;;;;;;27.70;22.60;;;24.30;95.80;;;;;;4925839;28;20239;-85
2021/07/08 06:17:55;;;;;;;29.83;24.00;;;24.40;95.80;;;;;;4920128;29;20217;-83
2021/07/08 06:20:24;;;;;;;28.13;24.02;;;24.30;95.50;;;;;;4922285;28;20218;-83
2021/07/08 06:22:53;;;;;;;30.27;25.20;;;24.20;95.70;;;;;;4923524;28;20313;-86
2021/07/08 06:25:26;;;;;;;31.20;24.27;;;24.10;96.50;;;;;;4939151;28;20463;-84
2021/07/08 06:27:55;;;;;;;28.80;24.63;;;24.10;97.00;;;;;;4940819;28;20721;-84
2021/07/08 06:30:26;;;;;;;30.48;25.73;;;24.10;97.00;;;;;;4934013;28;20202;-86
2021/07/08 06:32:54;;;;;;;30.52;26.40;;;24.00;97.00;;;;;;4929538;28;20193;-85
2021/07/08 06:35:23;;;;;;;33.65;26.90;;;24.10;96.10;;;;;;4946192;28;20205;-86
2021/07/08 06:37:52;;;;;;;31.85;25.98;;;24.20;96.70;;;;;;4922379;28;20283;-84
2021/07/08 06:40:22;;;;;;;30.75;26.75;;;24.40;95.20;;;;;;4925017;28;20205;-85
2021/07/08 06:42:50;;;;;;;34.75;27.27;;;24.60;94.60;;;;;;4915136;28;20229;-84
2021/07/08 06:45:20;;;;;;;33.67;26.98;;;24.50;94.30;;;;;;4923217;28;20369;-86
2021/07/08 06:47:51;;;;;;;28.25;25.25;;;24.70;95.20;;;;;;4919131;28;20847;-85
2021/07/08 06:50:22;;;;;;;31.73;27.63;;;25.00;93.80;;;;;;4916230;28;20249;-87
2021/07/08 06:52:51;;;;;;;31.88;28.13;;;25.20;93.00;;;;;;4912883;28;20216;-85
2021/07/08 06:55:20;;;;;;;29.48;26.33;;;25.30;92.70;;;;;;4910322;28;21097;-86
2021/07/08 06:57:52;;;;;;;33.03;28.00;;;25.50;92.60;;;;;;4916145;28;21149;-85
2021/07/08 07:00:23;;;;;;;33.88;29.17;;;25.70;92.30;;;;;;4919040;28;20213;-84
2021/07/08 07:02:54;;;;;;;35.50;30.52;;;25.90;91.80;;;;;;4913253;28;20264;-85
2021/07/08 07:05:24;;;;;;;32.03;27.90;;;26.10;91.30;;;;;;4911931;28;20213;-84
2021/07/08 07:07:53;;;;;;;32.83;29.42;;;26.10;91.40;;;;;;4899481;28;20536;-83
2021/07/08 07:10:23;;;;;;;33.70;28.67;;;26.20;91.30;;;;;;4901160;29;20213;-82
2021/07/08 07:12:54;;;;;;;32.17;28.80;;;26.30;91.20;;;;;;4896787;29;20293;-85
2021/07/08 07:15:26;;;;;;;31.05;27.55;;;26.50;90.80;;;;;;4908309;28;20206;-83
2021/07/08 07:17:58;;;;;;;29.58;26.50;;;26.40;90.90;;;;;;4909999;28;20202;-83
2021/07/08 07:20:27;;;;;;;35.03;28.40;;;26.60;91.00;;;;;;4896709;28;20571;-83
2021/07/08 07:22:56;;;;;;;29.95;26.30;;;26.60;90.40;;;;;;4885382;29;20265;-83
2021/07/08 07:25:27;;;;;;;30.10;27.10;;;26.40;90.10;;;;;;4910314;28;20298;-84
2021/07/08 07:27:57;;;;;;;27.45;24.65;;;26.40;89.60;;;;;;4915784;28;20426;-83
2021/07/08 07:30:27;;;;;;;31.27;26.42;;;26.40;89.90;;;;;;4912216;28;20313;-83
2021/07/08 07:32:57;;;;;;;28.15;25.30;;;26.40;90.00;;;;;;4897395;28;20337;-83
2021/07/08 07:35:26;;;;;;;30.33;27.08;;;26.40;89.70;;;;;;4891226;29;21062;-83
2021/07/08 07:37:55;;;;;;;27.52;24.80;;;26.60;89.50;;;;;;4893802;29;20304;-83
2021/07/08 07:40:24;;;;;;;29.67;26.67;;;26.70;89.50;;;;;;4893234;29;21124;-83
2021/07/08 07:42:53;;;;;;;28.67;25.77;;;26.70;89.30;;;;;;4889972;29;20230;-83
2021/07/08 07:45:22;;;;;;;30.95;27.63;;;26.90;89.50;;;;;;4894132;28;20214;-83
2021/07/08 07:47:53;;;;;;;31.13;28.10;;;26.90;88.80;;;;;;4892027;29;20869;-81
2021/07/08 07:50:26;;;;;;;29.55;26.70;;;27.00;88.80;;;;;;4889248;28;20254;-83
2021/07/08 07:52:55;;;;;;;30.55;27.33;;;27.00;88.70;;;;;;4891059;29;20547;-84
2021/07/08 07:55:27;;;;;;;29.38;26.23;;;27.10;88.50;;;;;;4887045;29;20289;-82
2021/07/08 07:57:57;;;;;;;31.60;28.38;;;27.00;88.60;;;;;;4893205;29;20210;-83
2021/07/08 08:00:28;;;;;;;28.98;25.88;;;27.00;88.70;;;;;;4893985;29;20722;-84
2021/07/08 08:02:57;;;;;;;30.50;27.20;;;27.20;88.60;;;;;;4885759;29;20328;-83
2021/07/08 08:05:37;;;;;;;28.30;25.20;;;27.40;88.20;;;;;;4890625;29;20213;-83
2021/07/08 08:10:55;;;;;;;28.02;25.05;;;27.60;87.70;;;;;;4882687;29;21111;-84
2021/07/08 08:13:24;;;;;;;27.77;24.98;;;27.50;87.90;;;;;;4885825;29;20766;-83
2021/07/08 08:15:54;;;;;;;28.17;24.73;;;27.50;87.60;;;;;;4887456;29;20552;-84
2021/07/08 08:18:25;;;;;;;33.97;29.67;;;27.60;87.90;;;;;;4897518;29;20447;-83
2021/07/08 08:20:56;;;;;;;36.55;27.63;;;27.70;87.80;;;;;;4895316;29;20738;-83
2021/07/08 08:23:25;;;;;;;32.90;29.52;;;27.60;87.80;;;;;;4892019;29;20491;-83
2021/07/08 08:25:54;;;;;;;32.15;28.67;;;27.70;87.70;;;;;;4901499;29;20785;-83
2021/07/08 08:28:23;;;;;;;37.28;29.17;;;27.70;87.50;;;;;;4889367;29;20312;-82
2021/07/08 08:30:53;;;;;;;33.03;28.48;;;27.40;87.50;;;;;;4892867;29;20632;-80
2021/07/08 08:33:22;;;;;;;32.50;28.40;;;27.20;87.60;;;;;;4903477;28;22042;-81
2021/07/08 08:35:50;;;;;;;35.70;31.65;;;27.00;88.40;;;;;;4918132;28;20237;-84
2021/07/08 08:38:20;;;;;;;40.35;33.33;;;26.90;88.20;;;;;;4906612;28;20234;-81
2021/07/08 08:40:49;;;;;;;32.10;28.70;;;26.70;88.20;;;;;;4905886;29;20269;-81
2021/07/08 08:43:18;;;;;;;35.95;31.58;;;26.70;88.70;;;;;;4898130;28;20221;-83
2021/07/08 08:45:47;;;;;;;35.78;29.30;;;26.80;88.40;;;;;;4914366;28;20275;-83
2021/07/08 08:48:16;;;;;;;34.42;30.13;;;27.00;88.40;;;;;;4898811;29;20262;-83
2021/07/08 08:50:47;;;;;;;33.53;29.92;;;27.00;88.40;;;;;;4900900;29;20245;-83
2021/07/08 08:53:17;;;;;;;39.58;31.08;;;27.20;88.30;;;;;;4898423;29;20359;-83
2021/07/08 08:55:49;;;;;;;39.38;32.10;;;27.40;88.20;;;;;;4900188;29;20691;-81
2021/07/08 08:58:20;;;;;;;36.42;31.50;;;27.50;88.00;;;;;;4900197;29;20529;-83
2021/07/08 09:00:53;;;;;;;38.75;33.15;;;27.60;88.00;;;;;;4900425;29;20217;-83
2021/07/08 09:03:25;;;;;;;36.05;31.60;;;27.80;88.00;;;;;;4899135;29;20337;-84
2021/07/08 09:06:00;;;;;;;43.92;34.40;;;28.00;87.80;;;;;;4895914;29;20615;-83
2021/07/08 09:08:29;;;;;;;44.28;35.38;;;28.10;87.70;;;;;;4889935;29;20743;-82
2021/07/08 09:11:12;;;;;;;40.10;34.63;;;28.20;87.70;;;;;;4900933;29;20205;-83
2021/07/08 09:13:56;;;;;;;42.75;34.20;;;28.30;87.50;;;;;;4890736;29;20559;-82
2021/07/08 09:16:31;;;;;;;36.00;31.00;;;28.30;87.70;;;;;;4887589;29;20220;-81
2021/07/08 09:19:03;;;;;;;33.05;29.05;;;28.50;87.20;;;;;;4892054;29;20233;-83
2021/07/08 09:21:33;;;;;;;34.28;30.15;;;28.60;87.50;;;;;;4893543;29;20848;-82
2021/07/08 09:24:11;;;;;;;33.90;29.35;;;28.70;87.10;;;;;;4874626;29;20374;-82
2021/07/08 09:26:43;;;;;;;32.42;28.92;;;28.90;87.10;;;;;;4886605;29;20220;-83
2021/07/08 09:29:18;;;;;;;31.75;28.35;;;29.00;87.00;;;;;;4900905;29;20469;-83
2021/07/08 09:31:51;;;;;;;35.13;31.40;;;29.10;86.80;;;;;;4894616;29;20413;-81
2021/07/08 09:34:22;;;;;;;33.22;29.73;;;29.20;86.80;;;;;;4898073;29;20214;-83
2021/07/08 09:37:06;;;;;;;33.53;29.92;;;29.40;86.90;;;;;;4896780;29;20769;-82
2021/07/08 09:39:36;;;;;;;31.65;27.40;;;29.20;86.50;;;;;;4896705;29;20301;-84
2021/07/08 09:42:08;;;;;;;32.72;28.63;;;29.20;87.00;;;;;;4893158;29;20282;-85
2021/07/08 09:44:38;;;;;;;33.85;30.20;;;29.20;86.80;;;;;;4900728;29;20445;-83
2021/07/08 09:47:24;;;;;;;31.27;27.98;;;29.20;87.00;;;;;;4891049;29;20237;-84
2021/07/08 09:49:53;;;;;;;32.97;27.58;;;29.10;86.80;;;;;;4896002;29;20611;-82
2021/07/08 09:52:22;;;;;;;28.38;25.65;;;28.90;86.80;;;;;;4895229;29;21126;-84
2021/07/08 09:55:12;;;;;;;30.30;27.20;;;29.00;87.00;;;;;;4893953;29;20217;-83
2021/07/08 09:57:47;;;;;;;32.28;28.80;;;29.10;87.50;;;;;;4890459;29;20502;-83
2021/07/08 10:00:37;;;;;;;32.13;28.75;;;29.10;86.90;;;;;;4893410;29;20210;-83
2021/07/08 10:03:06;;;;;;;30.90;27.63;;;29.00;87.20;;;;;;4896653;29;20289;-82
2021/07/08 10:05:38;;;;;;;30.70;27.48;;;29.20;87.20;;;;;;4915784;28;20241;-85
2021/07/08 10:08:10;;;;;;;31.42;28.17;;;29.30;86.90;;;;;;4915720;28;20210;-85
2021/07/08 10:10:41;;;;;;;33.72;29.45;;;29.30;87.00;;;;;;4914415;28;20214;-85
2021/07/08 10:13:12;;;;;;;34.60;30.88;;;29.30;87.10;;;;;;4867642;29;20315;-82
2021/07/08 10:15:44;;;;;;;35.75;30.90;;;29.20;86.70;;;;;;4913668;29;20214;-85
2021/07/08 10:18:18;;;;;;;38.50;33.75;;;29.20;86.90;;;;;;4912571;29;20224;-86
2021/07/08 10:20:51;;;;;;;35.67;31.83;;;29.00;86.80;;;;;;4915461;29;20203;-80
2021/07/08 10:23:20;;;;;;;36.13;32.20;;;28.90;86.70;;;;;;4907651;28;20209;-83
2021/07/08 10:25:50;;;;;;;36.35;29.92;;;28.80;86.90;;;;;;4913335;29;20202;-82
2021/07/08 10:28:43;;;;;;;35.40;31.50;;;28.80;87.10;;;;;;4913030;29;20206;-83
2021/07/08 10:31:15;;;;;;;35.45;31.55;;;28.90;87.00;;;;;;4915098;29;20207;-85
2021/07/08 10:34:06;;;;;;;37.08;32.08;;;28.90;86.90;;;;;;4911259;29;20203;-85
2021/07/08 10:36:37;;;;;;;35.00;31.27;;;28.90;87.00;;;;;;4906820;29;20223;-81
2021/07/08 10:39:07;;;;;;;35.17;31.13;;;28.90;87.10;;;;;;4899898;29;20699;-81
2021/07/08 10:41:53;;;;;;;34.25;30.63;;;28.90;87.00;;;;;;4896014;29;20210;-82
2021/07/08 10:44:41;;;;;;;35.40;31.00;;;28.90;87.30;;;;;;4892609;29;20790;-82
2021/07/08 10:47:45;;;;;;;38.38;31.48;;;29.10;87.30;;;;;;4904015;29;20202;-85
2021/07/08 10:50:38;;;;;;;37.25;32.17;;;29.10;86.90;;;;;;4905695;29;20210;-84
2021/07/08 10:53:25;;;;;;;37.22;30.88;;;29.10;87.30;;;;;;4897044;29;20624;-83
2021/07/08 10:55:57;;;;;;;33.90;30.13;;;29.30;87.30;;;;;;4911050;29;20756;-86
2021/07/08 10:58:48;;;;;;;38.08;31.95;;;29.50;87.30;;;;;;4905544;29;20206;-85
2021/07/08 11:01:44;;;;;;;36.53;30.88;;;29.70;86.80;;;;;;4918143;29;20207;-82
2021/07/08 11:04:15;;;;;;;28.23;25.25;;;29.70;86.60;;;;;;4922024;28;20218;-85
2021/07/08 11:06:47;;;;;;;31.10;28.13;;;29.60;86.80;;;;;;4907114;29;20569;-84
2021/07/08 11:09:24;;;;;;;29.63;26.58;;;29.30;87.20;;;;;;4918089;29;20210;-83
2021/07/08 11:12:04;;;;;;;28.80;25.90;;;29.40;87.30;;;;;;4926452;28;20333;-82
2021/07/08 11:14:39;;;;;;;29.15;26.25;;;29.60;87.70;;;;;;4903022;29;20206;-84
2021/07/08 11:17:19;;;;;;;27.80;25.10;;;29.90;87.30;;;;;;4911669;29;20209;-83
2021/07/08 11:19:52;;;;;;;27.55;24.75;;;30.20;86.80;;;;;;4923087;29;20210;-84
2021/07/08 11:22:34;;;;;;;24.65;22.27;;;30.20;87.00;;;;;;4918456;29;20292;-86
2021/07/08 11:25:17;;;;;;;26.80;22.38;;;30.00;86.80;;;;;;4897645;29;20402;-83
2021/07/08 11:27:47;;;;;;;26.58;23.98;;;30.00;86.80;;;;;;4908959;29;20695;-82
2021/07/08 11:30:31;;;;;;;24.15;21.70;;;30.10;86.30;;;;;;4921176;28;20273;-86
2021/07/08 11:33:06;;;;;;;25.58;23.13;;;30.20;86.70;;;;;;4908685;29;20206;-85
2021/07/08 11:35:39;;;;;;;26.83;23.95;;;30.20;86.40;;;;;;4918981;29;20198;-82
2021/07/08 11:38:13;;;;;;;27.10;24.50;;;30.50;86.60;;;;;;4918014;29;21122;-81
2021/07/08 11:40:44;;;;;;;28.02;25.23;;;30.70;86.10;;;;;;4907803;29;20217;-82
2021/07/08 11:43:20;;;;;;;26.88;24.27;;;30.70;86.00;;;;;;4894541;29;20297;-83
2021/07/08 11:45:53;;;;;;;24.52;22.13;;;30.80;85.70;;;;;;4888770;29;20242;-82
2021/07/08 11:48:28;;;;;;;24.77;22.25;;;30.90;86.10;;;;;;4886836;29;20655;-85
2021/07/08 11:50:59;;;;;;;26.38;23.65;;;31.00;86.10;;;;;;4838436;29;20213;-85
2021/07/08 11:53:46;;;;;;;23.65;21.35;;;30.80;86.10;;;;;;4890368;29;20206;-83
2021/07/08 11:56:32;;;;;;;17.10;15.48;;;31.00;85.80;;;;;;4898241;29;20210;-87
2021/07/08 11:59:20;;;;;;;12.15;11.05;;;31.10;84.80;;;;;;4872802;29;20447;-85
2021/07/08 12:01:49;;;;;;;11.95;10.95;;;31.00;83.70;;;;;;4862553;29;20233;-84
2021/07/08 12:04:23;;;;;;;12.60;11.45;;;30.90;83.30;;;;;;4892002;29;20659;-87
2021/07/08 12:06:53;;;;;;;12.23;11.13;;;30.70;83.60;;;;;;4896989;29;20643;-87
2021/07/08 12:09:24;;;;;;;16.15;14.55;;;31.00;83.50;;;;;;4864800;29;20467;-86
2021/07/08 12:11:56;;;;;;;19.30;17.42;;;31.00;84.20;;;;;;4851209;29;20214;-85
2021/07/08 12:14:43;;;;;;;17.83;16.10;;;31.30;84.40;;;;;;4906377;29;20490;-84
2021/07/08 12:17:11;;;;;;;17.05;15.35;;;31.70;84.80;;;;;;4914810;29;20465;-84
2021/07/08 12:20:11;;;;;;;14.10;12.77;;;32.20;84.00;;;;;;4878019;29;20892;-84
2021/07/08 12:23:01;;;;;;;13.45;12.13;;;32.50;82.30;;;;;;4903149;29;21788;-86
2021/07/08 12:25:32;;;;;;;11.88;10.85;;;32.50;82.20;;;;;;4903852;29;20230;-85
2021/07/08 12:28:01;;;;;;;11.52;10.50;;;32.50;81.60;;;;;;4900293;29;20352;-84
2021/07/08 12:30:31;;;;;;;11.50;10.57;;;32.60;82.00;;;;;;4838272;29;20623;-88
2021/07/08 12:33:09;;;;;;;9.15;8.27;;;32.90;81.00;;;;;;4878604;29;20402;-87
2021/07/08 12:35:45;;;;;;;9.27;6.97;;;33.00;80.10;;;;;;4904726;29;20453;-84
2021/07/08 12:38:19;;;;;;;7.55;6.68;;;32.80;78.00;;;;;;4906115;29;20293;-85
2021/07/08 12:40:49;;;;;;;6.63;6.03;;;32.70;78.30;;;;;;4901884;29;20372;-83
2021/07/08 12:43:19;;;;;;;7.40;6.63;;;32.70;79.30;;;;;;4914709;29;20202;-85
2021/07/08 12:45:48;;;;;;;7.28;6.57;;;32.80;77.80;;;;;;4918050;29;20848;-84
2021/07/08 12:48:18;;;;;;;6.25;5.63;;;32.80;76.10;;;;;;4920854;28;20322;-86
2021/07/08 12:50:48;;;;;;;7.05;6.43;;;32.60;74.70;;;;;;4916602;29;20365;-85
2021/07/08 12:53:20;;;;;;;6.32;5.93;;;32.80;75.30;;;;;;4897929;29;20786;-81